sensor_id;sensor_type;location;lat;lon;timestamp;P1;durP1;ratioP1;P2;durP2;ratioP2
70320;SDS011;61127;55.826;37.046;2023-12-22T00:00:45;13.48;;;5.80;;
70320;SDS011;61127;55.826;37.046;2023-12-22T00:03:13;13.70;;;6.35;;
70320;SDS011;61127;55.826;37.046;2023-12-22T00:05:39;11.55;;;5.40;;
70320;SDS011;61127;55.826;37.046;2023-12-22T00:08:05;12.85;;;5.60;;
70320;SDS011;61127;55.826;37.046;2023-12-22T00:10:31;13.90;;;5.90;;
70320;SDS011;61127;55.826;37.046;2023-12-22T00:12:57;11.57;;;5.32;;
70320;SDS011;61127;55.826;37.046;2023-12-22T00:15:23;11.63;;;5.25;;
70320;SDS011;61127;55.826;37.046;2023-12-22T00:17:49;11.90;;;5.97;;
70320;SDS011;61127;55.826;37.046;2023-12-22T00:20:14;9.55;;;4.90;;
70320;SDS011;61127;55.826;37.046;2023-12-22T00:22:40;10.57;;;5.23;;
70320;SDS011;61127;55.826;37.046;2023-12-22T00:25:06;11.15;;;5.13;;
70320;SDS011;61127;55.826;37.046;2023-12-22T00:27:33;10.77;;;5.00;;
70320;SDS011;61127;55.826;37.046;2023-12-22T00:29:59;13.20;;;5.50;;
70320;SDS011;61127;55.826;37.046;2023-12-22T00:32:25;10.02;;;4.78;;
70320;SDS011;61127;55.826;37.046;2023-12-22T00:34:51;13.70;;;5.40;;
70320;SDS011;61127;55.826;37.046;2023-12-22T00:37:16;9.88;;;4.90;;
70320;SDS011;61127;55.826;37.046;2023-12-22T00:39:42;10.45;;;4.60;;
70320;SDS011;61127;55.826;37.046;2023-12-22T00:42:08;11.07;;;5.03;;
70320;SDS011;61127;55.826;37.046;2023-12-22T00:44:33;10.40;;;4.60;;
70320;SDS011;61127;55.826;37.046;2023-12-22T00:46:59;10.82;;;4.68;;
70320;SDS011;61127;55.826;37.046;2023-12-22T00:49:25;9.90;;;4.57;;
70320;SDS011;61127;55.826;37.046;2023-12-22T00:51:51;11.05;;;4.82;;
70320;SDS011;61127;55.826;37.046;2023-12-22T00:54:16;10.17;;;4.30;;
70320;SDS011;61127;55.826;37.046;2023-12-22T00:56:42;9.85;;;4.22;;
70320;SDS011;61127;55.826;37.046;2023-12-22T00:59:08;11.40;;;4.97;;
70320;SDS011;61127;55.826;37.046;2023-12-22T01:01:34;10.77;;;4.60;;
70320;SDS011;61127;55.826;37.046;2023-12-22T01:03:59;9.83;;;4.60;;
70320;SDS011;61127;55.826;37.046;2023-12-22T01:06:25;11.38;;;4.43;;
70320;SDS011;61127;55.826;37.046;2023-12-22T01:08:51;11.33;;;4.83;;
70320;SDS011;61127;55.826;37.046;2023-12-22T01:11:17;9.18;;;4.57;;
70320;SDS011;61127;55.826;37.046;2023-12-22T01:13:43;8.70;;;4.32;;
70320;SDS011;61127;55.826;37.046;2023-12-22T01:16:09;9.90;;;4.50;;
70320;SDS011;61127;55.826;37.046;2023-12-22T01:18:35;9.45;;;4.20;;
70320;SDS011;61127;55.826;37.046;2023-12-22T01:21:01;10.32;;;4.47;;
70320;SDS011;61127;55.826;37.046;2023-12-22T01:23:27;12.02;;;4.53;;
70320;SDS011;61127;55.826;37.046;2023-12-22T01:25:53;9.23;;;4.10;;
70320;SDS011;61127;55.826;37.046;2023-12-22T01:28:18;9.38;;;4.20;;
70320;SDS011;61127;55.826;37.046;2023-12-22T01:30:44;9.40;;;3.90;;
70320;SDS011;61127;55.826;37.046;2023-12-22T01:33:10;11.15;;;4.70;;
70320;SDS011;61127;55.826;37.046;2023-12-22T01:35:36;9.50;;;4.07;;
70320;SDS011;61127;55.826;37.046;2023-12-22T01:38:01;10.25;;;4.03;;
70320;SDS011;61127;55.826;37.046;2023-12-22T01:40:27;10.55;;;4.00;;
70320;SDS011;61127;55.826;37.046;2023-12-22T01:42:53;9.97;;;4.20;;
70320;SDS011;61127;55.826;37.046;2023-12-22T01:45:19;9.25;;;4.28;;
70320;SDS011;61127;55.826;37.046;2023-12-22T01:47:45;9.98;;;4.57;;
70320;SDS011;61127;55.826;37.046;2023-12-22T01:50:12;10.77;;;4.50;;
70320;SDS011;61127;55.826;37.046;2023-12-22T01:52:38;9.20;;;3.97;;
70320;SDS011;61127;55.826;37.046;2023-12-22T01:55:05;9.90;;;4.38;;
70320;SDS011;61127;55.826;37.046;2023-12-22T01:57:32;10.45;;;4.38;;
70320;SDS011;61127;55.826;37.046;2023-12-22T02:00:00;8.65;;;4.32;;
70320;SDS011;61127;55.826;37.046;2023-12-22T02:02:26;10.37;;;4.07;;
70320;SDS011;61127;55.826;37.046;2023-12-22T02:04:53;11.80;;;4.07;;
70320;SDS011;61127;55.826;37.046;2023-12-22T02:07:19;11.32;;;4.57;;
70320;SDS011;61127;55.826;37.046;2023-12-22T02:09:45;9.40;;;4.10;;
70320;SDS011;61127;55.826;37.046;2023-12-22T02:12:10;8.40;;;3.83;;
70320;SDS011;61127;55.826;37.046;2023-12-22T02:14:36;10.05;;;4.15;;
70320;SDS011;61127;55.826;37.046;2023-12-22T02:23:23;9.20;;;3.50;;
70320;SDS011;61127;55.826;37.046;2023-12-22T02:25:49;10.00;;;3.83;;
70320;SDS011;61127;55.826;37.046;2023-12-22T02:28:19;10.00;;;3.80;;
70320;SDS011;61127;55.826;37.046;2023-12-22T02:30:55;9.32;;;3.80;;
70320;SDS011;61127;55.826;37.046;2023-12-22T02:33:23;8.40;;;3.67;;
70320;SDS011;61127;55.826;37.046;2023-12-22T02:35:50;8.00;;;3.10;;
70320;SDS011;61127;55.826;37.046;2023-12-22T02:38:16;9.07;;;3.90;;
70320;SDS011;61127;55.826;37.046;2023-12-22T02:40:43;10.70;;;4.03;;
70320;SDS011;61127;55.826;37.046;2023-12-22T02:43:09;9.15;;;3.50;;
70320;SDS011;61127;55.826;37.046;2023-12-22T02:45:35;8.07;;;3.33;;
70320;SDS011;61127;55.826;37.046;2023-12-22T02:48:00;8.30;;;3.20;;
70320;SDS011;61127;55.826;37.046;2023-12-22T02:50:26;8.67;;;4.10;;
70320;SDS011;61127;55.826;37.046;2023-12-22T02:52:52;7.32;;;3.30;;
70320;SDS011;61127;55.826;37.046;2023-12-22T02:55:18;8.63;;;3.90;;
70320;SDS011;61127;55.826;37.046;2023-12-22T02:57:44;8.13;;;3.38;;
70320;SDS011;61127;55.826;37.046;2023-12-22T03:00:10;7.72;;;3.50;;
70320;SDS011;61127;55.826;37.046;2023-12-22T03:02:36;9.27;;;3.67;;
70320;SDS011;61127;55.826;37.046;2023-12-22T03:05:02;8.63;;;3.67;;
70320;SDS011;61127;55.826;37.046;2023-12-22T03:07:30;9.73;;;3.80;;
70320;SDS011;61127;55.826;37.046;2023-12-22T03:09:56;8.50;;;3.93;;
70320;SDS011;61127;55.826;37.046;2023-12-22T03:12:21;9.68;;;4.25;;
70320;SDS011;61127;55.826;37.046;2023-12-22T03:14:47;8.03;;;4.10;;
70320;SDS011;61127;55.826;37.046;2023-12-22T03:17:13;7.13;;;3.63;;
70320;SDS011;61127;55.826;37.046;2023-12-22T03:19:40;7.20;;;3.78;;
70320;SDS011;61127;55.826;37.046;2023-12-22T03:22:06;8.67;;;3.77;;
70320;SDS011;61127;55.826;37.046;2023-12-22T03:24:31;9.63;;;3.95;;
70320;SDS011;61127;55.826;37.046;2023-12-22T03:26:57;8.03;;;3.70;;
70320;SDS011;61127;55.826;37.046;2023-12-22T03:29:23;8.93;;;4.05;;
70320;SDS011;61127;55.826;37.046;2023-12-22T03:31:49;7.90;;;3.60;;
70320;SDS011;61127;55.826;37.046;2023-12-22T03:34:15;9.43;;;3.75;;
70320;SDS011;61127;55.826;37.046;2023-12-22T03:36:40;7.65;;;3.45;;
70320;SDS011;61127;55.826;37.046;2023-12-22T03:39:06;10.57;;;4.00;;
70320;SDS011;61127;55.826;37.046;2023-12-22T03:41:32;7.07;;;3.38;;
70320;SDS011;61127;55.826;37.046;2023-12-22T03:43:58;7.40;;;3.93;;
70320;SDS011;61127;55.826;37.046;2023-12-22T03:46:24;7.47;;;3.50;;
70320;SDS011;61127;55.826;37.046;2023-12-22T03:48:50;8.30;;;3.93;;
70320;SDS011;61127;55.826;37.046;2023-12-22T03:51:16;7.57;;;3.17;;
70320;SDS011;61127;55.826;37.046;2023-12-22T03:53:41;9.13;;;3.95;;
70320;SDS011;61127;55.826;37.046;2023-12-22T03:56:08;10.27;;;4.17;;
70320;SDS011;61127;55.826;37.046;2023-12-22T03:58:37;8.93;;;3.65;;
70320;SDS011;61127;55.826;37.046;2023-12-22T04:01:03;7.78;;;3.50;;
70320;SDS011;61127;55.826;37.046;2023-12-22T04:03:29;8.40;;;4.15;;
70320;SDS011;61127;55.826;37.046;2023-12-22T04:05:55;6.00;;;3.07;;
70320;SDS011;61127;55.826;37.046;2023-12-22T04:08:21;9.40;;;4.35;;
70320;SDS011;61127;55.826;37.046;2023-12-22T04:10:47;7.10;;;3.53;;
70320;SDS011;61127;55.826;37.046;2023-12-22T04:13:13;9.60;;;3.70;;
70320;SDS011;61127;55.826;37.046;2023-12-22T04:15:39;8.90;;;3.75;;
70320;SDS011;61127;55.826;37.046;2023-12-22T04:18:05;7.60;;;3.83;;
70320;SDS011;61127;55.826;37.046;2023-12-22T04:20:31;9.23;;;4.40;;
70320;SDS011;61127;55.826;37.046;2023-12-22T04:22:57;7.55;;;3.38;;
70320;SDS011;61127;55.826;37.046;2023-12-22T04:25:23;9.60;;;4.57;;
70320;SDS011;61127;55.826;37.046;2023-12-22T04:28:00;7.80;;;4.15;;
70320;SDS011;61127;55.826;37.046;2023-12-22T04:30:39;9.87;;;4.47;;
70320;SDS011;61127;55.826;37.046;2023-12-22T04:33:05;8.63;;;4.20;;
70320;SDS011;61127;55.826;37.046;2023-12-22T04:35:31;8.27;;;4.17;;
70320;SDS011;61127;55.826;37.046;2023-12-22T04:37:56;8.73;;;4.03;;
70320;SDS011;61127;55.826;37.046;2023-12-22T04:40:22;10.50;;;4.43;;
70320;SDS011;61127;55.826;37.046;2023-12-22T04:42:48;10.55;;;4.78;;
70320;SDS011;61127;55.826;37.046;2023-12-22T04:45:14;9.93;;;4.65;;
70320;SDS011;61127;55.826;37.046;2023-12-22T04:47:43;8.63;;;4.17;;
70320;SDS011;61127;55.826;37.046;2023-12-22T04:50:09;9.48;;;5.10;;
70320;SDS011;61127;55.826;37.046;2023-12-22T04:52:35;10.90;;;5.00;;
70320;SDS011;61127;55.826;37.046;2023-12-22T04:55:01;10.30;;;5.10;;
70320;SDS011;61127;55.826;37.046;2023-12-22T04:57:30;10.10;;;5.07;;
70320;SDS011;61127;55.826;37.046;2023-12-22T04:59:58;9.57;;;4.70;;
70320;SDS011;61127;55.826;37.046;2023-12-22T05:02:24;11.17;;;5.07;;
70320;SDS011;61127;55.826;37.046;2023-12-22T05:04:50;10.70;;;4.95;;
70320;SDS011;61127;55.826;37.046;2023-12-22T05:07:15;11.20;;;4.87;;
70320;SDS011;61127;55.826;37.046;2023-12-22T05:09:41;13.43;;;5.55;;
70320;SDS011;61127;55.826;37.046;2023-12-22T05:12:07;11.45;;;5.15;;
70320;SDS011;61127;55.826;37.046;2023-12-22T05:14:33;11.10;;;5.57;;
70320;SDS011;61127;55.826;37.046;2023-12-22T05:16:59;10.93;;;5.23;;
70320;SDS011;61127;55.826;37.046;2023-12-22T05:19:26;12.35;;;5.00;;
70320;SDS011;61127;55.826;37.046;2023-12-22T05:21:51;13.77;;;5.32;;
70320;SDS011;61127;55.826;37.046;2023-12-22T05:24:21;12.70;;;5.90;;
70320;SDS011;61127;55.826;37.046;2023-12-22T05:26:47;10.48;;;5.28;;
70320;SDS011;61127;55.826;37.046;2023-12-22T05:29:13;10.73;;;5.47;;
70320;SDS011;61127;55.826;37.046;2023-12-22T05:31:39;12.00;;;5.40;;
70320;SDS011;61127;55.826;37.046;2023-12-22T05:34:05;11.93;;;5.47;;
70320;SDS011;61127;55.826;37.046;2023-12-22T05:36:31;10.82;;;5.68;;
70320;SDS011;61127;55.826;37.046;2023-12-22T05:38:57;10.33;;;5.40;;
70320;SDS011;61127;55.826;37.046;2023-12-22T05:41:23;10.52;;;5.35;;
70320;SDS011;61127;55.826;37.046;2023-12-22T05:43:49;11.45;;;5.47;;
70320;SDS011;61127;55.826;37.046;2023-12-22T05:46:14;11.60;;;5.53;;
70320;SDS011;61127;55.826;37.046;2023-12-22T05:48:40;10.70;;;5.30;;
70320;SDS011;61127;55.826;37.046;2023-12-22T05:51:06;11.23;;;5.10;;
70320;SDS011;61127;55.826;37.046;2023-12-22T05:53:39;14.32;;;5.32;;
70320;SDS011;61127;55.826;37.046;2023-12-22T05:56:22;9.95;;;5.10;;
70320;SDS011;61127;55.826;37.046;2023-12-22T05:58:48;11.60;;;5.53;;
70320;SDS011;61127;55.826;37.046;2023-12-22T06:01:14;13.47;;;6.03;;
70320;SDS011;61127;55.826;37.046;2023-12-22T06:03:41;10.55;;;5.38;;
70320;SDS011;61127;55.826;37.046;2023-12-22T06:06:06;11.85;;;5.22;;
70320;SDS011;61127;55.826;37.046;2023-12-22T06:08:32;11.53;;;5.27;;
70320;SDS011;61127;55.826;37.046;2023-12-22T06:10:58;13.88;;;6.57;;
70320;SDS011;61127;55.826;37.046;2023-12-22T06:13:26;12.97;;;6.20;;
70320;SDS011;61127;55.826;37.046;2023-12-22T06:15:52;10.82;;;5.78;;
70320;SDS011;61127;55.826;37.046;2023-12-22T06:18:18;13.52;;;6.32;;
70320;SDS011;61127;55.826;37.046;2023-12-22T06:20:43;13.88;;;6.18;;
70320;SDS011;61127;55.826;37.046;2023-12-22T06:23:09;13.70;;;6.53;;
70320;SDS011;61127;55.826;37.046;2023-12-22T06:25:35;13.10;;;6.28;;
70320;SDS011;61127;55.826;37.046;2023-12-22T06:28:01;11.82;;;5.55;;
70320;SDS011;61127;55.826;37.046;2023-12-22T06:30:26;12.87;;;6.17;;
70320;SDS011;61127;55.826;37.046;2023-12-22T06:32:52;11.82;;;5.80;;
70320;SDS011;61127;55.826;37.046;2023-12-22T06:35:18;13.55;;;6.32;;
70320;SDS011;61127;55.826;37.046;2023-12-22T06:37:49;11.93;;;5.90;;
70320;SDS011;61127;55.826;37.046;2023-12-22T06:40:15;12.55;;;5.88;;
70320;SDS011;61127;55.826;37.046;2023-12-22T06:42:41;12.90;;;6.40;;
70320;SDS011;61127;55.826;37.046;2023-12-22T06:45:06;13.77;;;6.15;;
70320;SDS011;61127;55.826;37.046;2023-12-22T06:47:32;13.97;;;6.17;;
70320;SDS011;61127;55.826;37.046;2023-12-22T06:49:58;12.90;;;7.00;;
70320;SDS011;61127;55.826;37.046;2023-12-22T06:52:24;11.93;;;6.03;;
70320;SDS011;61127;55.826;37.046;2023-12-22T06:54:50;12.33;;;5.67;;
70320;SDS011;61127;55.826;37.046;2023-12-22T06:57:15;11.15;;;5.15;;
70320;SDS011;61127;55.826;37.046;2023-12-22T06:59:42;12.77;;;7.10;;
70320;SDS011;61127;55.826;37.046;2023-12-22T07:02:08;14.27;;;6.88;;
70320;SDS011;61127;55.826;37.046;2023-12-22T07:04:34;12.13;;;6.25;;
70320;SDS011;61127;55.826;37.046;2023-12-22T07:07:00;12.53;;;6.23;;
70320;SDS011;61127;55.826;37.046;2023-12-22T07:11:53;15.00;;;6.57;;
70320;SDS011;61127;55.826;37.046;2023-12-22T07:14:20;11.23;;;6.00;;
70320;SDS011;61127;55.826;37.046;2023-12-22T07:16:45;13.85;;;5.68;;
70320;SDS011;61127;55.826;37.046;2023-12-22T07:19:11;13.83;;;5.97;;
70320;SDS011;61127;55.826;37.046;2023-12-22T07:21:40;14.57;;;6.45;;
70320;SDS011;61127;55.826;37.046;2023-12-22T07:24:06;12.25;;;6.53;;
70320;SDS011;61127;55.826;37.046;2023-12-22T07:26:33;13.32;;;6.38;;
70320;SDS011;61127;55.826;37.046;2023-12-22T07:28:59;11.93;;;6.07;;
70320;SDS011;61127;55.826;37.046;2023-12-22T07:31:25;13.35;;;6.80;;
70320;SDS011;61127;55.826;37.046;2023-12-22T07:33:52;14.02;;;6.38;;
70320;SDS011;61127;55.826;37.046;2023-12-22T07:36:17;13.17;;;6.27;;
70320;SDS011;61127;55.826;37.046;2023-12-22T07:38:49;13.48;;;7.63;;
70320;SDS011;61127;55.826;37.046;2023-12-22T07:41:15;13.55;;;6.57;;
70320;SDS011;61127;55.826;37.046;2023-12-22T07:43:41;14.07;;;5.70;;
70320;SDS011;61127;55.826;37.046;2023-12-22T07:46:07;12.82;;;5.65;;
70320;SDS011;61127;55.826;37.046;2023-12-22T07:48:35;15.20;;;7.60;;
70320;SDS011;61127;55.826;37.046;2023-12-22T07:51:00;16.48;;;7.13;;
70320;SDS011;61127;55.826;37.046;2023-12-22T07:53:26;12.55;;;6.45;;
70320;SDS011;61127;55.826;37.046;2023-12-22T07:55:52;17.38;;;6.95;;
70320;SDS011;61127;55.826;37.046;2023-12-22T07:58:18;15.57;;;7.27;;
70320;SDS011;61127;55.826;37.046;2023-12-22T08:00:44;16.65;;;7.82;;
70320;SDS011;61127;55.826;37.046;2023-12-22T08:03:12;17.67;;;8.02;;
70320;SDS011;61127;55.826;37.046;2023-12-22T08:05:37;14.17;;;7.10;;
70320;SDS011;61127;55.826;37.046;2023-12-22T08:08:03;16.38;;;6.93;;
70320;SDS011;61127;55.826;37.046;2023-12-22T08:10:29;13.35;;;6.90;;
70320;SDS011;61127;55.826;37.046;2023-12-22T08:12:55;15.47;;;7.43;;
70320;SDS011;61127;55.826;37.046;2023-12-22T08:15:21;14.48;;;7.25;;
70320;SDS011;61127;55.826;37.046;2023-12-22T08:17:49;16.17;;;7.80;;
70320;SDS011;61127;55.826;37.046;2023-12-22T08:20:17;12.35;;;6.43;;
70320;SDS011;61127;55.826;37.046;2023-12-22T08:22:48;15.63;;;7.43;;
70320;SDS011;61127;55.826;37.046;2023-12-22T08:25:14;14.35;;;6.80;;
70320;SDS011;61127;55.826;37.046;2023-12-22T08:27:40;15.87;;;6.77;;
70320;SDS011;61127;55.826;37.046;2023-12-22T08:30:06;17.63;;;8.18;;
70320;SDS011;61127;55.826;37.046;2023-12-22T08:32:32;14.63;;;7.10;;
70320;SDS011;61127;55.826;37.046;2023-12-22T08:34:58;17.92;;;8.07;;
70320;SDS011;61127;55.826;37.046;2023-12-22T08:37:23;16.50;;;7.60;;
70320;SDS011;61127;55.826;37.046;2023-12-22T08:39:49;14.63;;;7.35;;
70320;SDS011;61127;55.826;37.046;2023-12-22T08:42:19;16.23;;;8.07;;
70320;SDS011;61127;55.826;37.046;2023-12-22T08:44:45;15.13;;;7.47;;
70320;SDS011;61127;55.826;37.046;2023-12-22T08:47:10;14.65;;;8.20;;
70320;SDS011;61127;55.826;37.046;2023-12-22T08:49:37;14.37;;;7.60;;
70320;SDS011;61127;55.826;37.046;2023-12-22T08:52:02;14.23;;;7.53;;
70320;SDS011;61127;55.826;37.046;2023-12-22T08:54:30;16.08;;;7.57;;
70320;SDS011;61127;55.826;37.046;2023-12-22T08:56:55;15.02;;;7.60;;
70320;SDS011;61127;55.826;37.046;2023-12-22T08:59:21;15.52;;;7.25;;
70320;SDS011;61127;55.826;37.046;2023-12-22T09:01:47;15.57;;;7.53;;
70320;SDS011;61127;55.826;37.046;2023-12-22T09:04:13;14.10;;;7.77;;
70320;SDS011;61127;55.826;37.046;2023-12-22T09:06:39;14.13;;;6.85;;
70320;SDS011;61127;55.826;37.046;2023-12-22T09:09:04;12.37;;;6.60;;
70320;SDS011;61127;55.826;37.046;2023-12-22T09:11:30;12.32;;;6.30;;
70320;SDS011;61127;55.826;37.046;2023-12-22T09:13:56;14.82;;;6.95;;
70320;SDS011;61127;55.826;37.046;2023-12-22T09:16:22;14.47;;;6.90;;
70320;SDS011;61127;55.826;37.046;2023-12-22T09:18:48;13.50;;;6.45;;
70320;SDS011;61127;55.826;37.046;2023-12-22T09:21:15;12.63;;;6.95;;
70320;SDS011;61127;55.826;37.046;2023-12-22T09:23:45;13.63;;;6.80;;
70320;SDS011;61127;55.826;37.046;2023-12-22T09:26:12;12.50;;;6.38;;
70320;SDS011;61127;55.826;37.046;2023-12-22T09:28:39;12.70;;;5.95;;
70320;SDS011;61127;55.826;37.046;2023-12-22T09:31:06;12.10;;;5.65;;
70320;SDS011;61127;55.826;37.046;2023-12-22T09:33:32;14.00;;;6.43;;
70320;SDS011;61127;55.826;37.046;2023-12-22T09:35:57;14.07;;;6.93;;
70320;SDS011;61127;55.826;37.046;2023-12-22T09:38:23;14.25;;;6.65;;
70320;SDS011;61127;55.826;37.046;2023-12-22T09:40:52;14.50;;;6.47;;
70320;SDS011;61127;55.826;37.046;2023-12-22T09:43:19;12.73;;;6.00;;
70320;SDS011;61127;55.826;37.046;2023-12-22T09:45:51;13.00;;;6.15;;
70320;SDS011;61127;55.826;37.046;2023-12-22T09:48:17;12.75;;;6.28;;
70320;SDS011;61127;55.826;37.046;2023-12-22T09:50:43;14.55;;;6.05;;
70320;SDS011;61127;55.826;37.046;2023-12-22T09:53:13;11.45;;;5.78;;
70320;SDS011;61127;55.826;37.046;2023-12-22T09:55:44;13.10;;;5.83;;
70320;SDS011;61127;55.826;37.046;2023-12-22T09:58:12;12.05;;;6.22;;
70320;SDS011;61127;55.826;37.046;2023-12-22T10:00:38;13.07;;;5.63;;
70320;SDS011;61127;55.826;37.046;2023-12-22T10:03:07;10.70;;;5.30;;
70320;SDS011;61127;55.826;37.046;2023-12-22T10:05:33;12.23;;;6.05;;
70320;SDS011;61127;55.826;37.046;2023-12-22T10:07:59;13.67;;;5.80;;
70320;SDS011;61127;55.826;37.046;2023-12-22T10:10:27;12.52;;;5.75;;
70320;SDS011;61127;55.826;37.046;2023-12-22T10:12:54;15.60;;;6.47;;
70320;SDS011;61127;55.826;37.046;2023-12-22T10:15:20;13.70;;;6.68;;
70320;SDS011;61127;55.826;37.046;2023-12-22T10:17:52;13.10;;;6.13;;
70320;SDS011;61127;55.826;37.046;2023-12-22T10:20:19;16.95;;;6.70;;
70320;SDS011;61127;55.826;37.046;2023-12-22T10:22:45;19.83;;;6.97;;
70320;SDS011;61127;55.826;37.046;2023-12-22T10:25:14;17.02;;;6.63;;
70320;SDS011;61127;55.826;37.046;2023-12-22T10:27:41;19.67;;;6.45;;
70320;SDS011;61127;55.826;37.046;2023-12-22T10:30:07;16.77;;;6.90;;
70320;SDS011;61127;55.826;37.046;2023-12-22T10:32:33;12.57;;;5.70;;
70320;SDS011;61127;55.826;37.046;2023-12-22T10:34:59;13.60;;;5.32;;
70320;SDS011;61127;55.826;37.046;2023-12-22T10:37:24;13.13;;;5.60;;
70320;SDS011;61127;55.826;37.046;2023-12-22T10:39:54;13.05;;;6.03;;
70320;SDS011;61127;55.826;37.046;2023-12-22T10:42:20;10.32;;;5.10;;
70320;SDS011;61127;55.826;37.046;2023-12-22T10:44:46;10.83;;;4.60;;
70320;SDS011;61127;55.826;37.046;2023-12-22T10:47:12;9.55;;;4.55;;
70320;SDS011;61127;55.826;37.046;2023-12-22T10:49:37;9.57;;;4.60;;
70320;SDS011;61127;55.826;37.046;2023-12-22T10:52:03;10.60;;;5.22;;
70320;SDS011;61127;55.826;37.046;2023-12-22T10:54:30;10.05;;;4.75;;
70320;SDS011;61127;55.826;37.046;2023-12-22T10:56:59;11.88;;;5.28;;
70320;SDS011;61127;55.826;37.046;2023-12-22T10:59:27;11.05;;;4.68;;
70320;SDS011;61127;55.826;37.046;2023-12-22T11:01:54;8.03;;;4.33;;
70320;SDS011;61127;55.826;37.046;2023-12-22T11:04:22;11.55;;;5.40;;
70320;SDS011;61127;55.826;37.046;2023-12-22T11:06:49;11.32;;;4.10;;
70320;SDS011;61127;55.826;37.046;2023-12-22T11:09:15;9.77;;;5.03;;
70320;SDS011;61127;55.826;37.046;2023-12-22T11:11:42;10.68;;;4.95;;
70320;SDS011;61127;55.826;37.046;2023-12-22T11:14:08;12.87;;;5.10;;
70320;SDS011;61127;55.826;37.046;2023-12-22T11:16:36;14.82;;;5.78;;
70320;SDS011;61127;55.826;37.046;2023-12-22T11:19:02;11.02;;;5.20;;
70320;SDS011;61127;55.826;37.046;2023-12-22T11:21:29;9.03;;;4.40;;
70320;SDS011;61127;55.826;37.046;2023-12-22T11:23:55;11.15;;;4.88;;
70320;SDS011;61127;55.826;37.046;2023-12-22T11:26:23;12.63;;;5.65;;
70320;SDS011;61127;55.826;37.046;2023-12-22T11:28:49;12.45;;;4.80;;
70320;SDS011;61127;55.826;37.046;2023-12-22T11:31:17;13.88;;;5.00;;
70320;SDS011;61127;55.826;37.046;2023-12-22T11:33:43;12.57;;;5.40;;
70320;SDS011;61127;55.826;37.046;2023-12-22T11:36:09;10.90;;;4.88;;
70320;SDS011;61127;55.826;37.046;2023-12-22T11:38:36;13.45;;;6.00;;
70320;SDS011;61127;55.826;37.046;2023-12-22T11:41:02;12.48;;;5.40;;
70320;SDS011;61127;55.826;37.046;2023-12-22T11:43:29;13.07;;;5.40;;
70320;SDS011;61127;55.826;37.046;2023-12-22T11:46:00;12.90;;;5.00;;
70320;SDS011;61127;55.826;37.046;2023-12-22T11:48:26;13.25;;;5.43;;
70320;SDS011;61127;55.826;37.046;2023-12-22T11:50:52;13.50;;;5.65;;
70320;SDS011;61127;55.826;37.046;2023-12-22T11:53:22;10.33;;;3.97;;
70320;SDS011;61127;55.826;37.046;2023-12-22T11:56:01;11.07;;;5.35;;
70320;SDS011;61127;55.826;37.046;2023-12-22T11:58:32;10.95;;;5.32;;
70320;SDS011;61127;55.826;37.046;2023-12-22T12:00:59;13.90;;;6.00;;
70320;SDS011;61127;55.826;37.046;2023-12-22T12:03:26;13.47;;;5.63;;
70320;SDS011;61127;55.826;37.046;2023-12-22T12:08:56;13.07;;;6.35;;
70320;SDS011;61127;55.826;37.046;2023-12-22T12:11:22;11.80;;;5.88;;
70320;SDS011;61127;55.826;37.046;2023-12-22T12:13:49;12.38;;;6.38;;
70320;SDS011;61127;55.826;37.046;2023-12-22T12:16:16;15.00;;;7.03;;
70320;SDS011;61127;55.826;37.046;2023-12-22T12:18:49;16.13;;;7.20;;
70320;SDS011;61127;55.826;37.046;2023-12-22T12:21:15;14.82;;;6.32;;
70320;SDS011;61127;55.826;37.046;2023-12-22T12:23:41;16.70;;;6.30;;
70320;SDS011;61127;55.826;37.046;2023-12-22T12:26:07;16.33;;;7.37;;
70320;SDS011;61127;55.826;37.046;2023-12-22T12:28:34;17.40;;;7.68;;
70320;SDS011;61127;55.826;37.046;2023-12-22T12:31:05;16.63;;;8.75;;
70320;SDS011;61127;55.826;37.046;2023-12-22T12:33:31;17.13;;;7.57;;
70320;SDS011;61127;55.826;37.046;2023-12-22T12:35:57;17.45;;;8.20;;
70320;SDS011;61127;55.826;37.046;2023-12-22T12:41:11;17.90;;;8.00;;
70320;SDS011;61127;55.826;37.046;2023-12-22T12:43:40;14.55;;;5.72;;
70320;SDS011;61127;55.826;37.046;2023-12-22T12:46:06;20.67;;;10.57;;
70320;SDS011;61127;55.826;37.046;2023-12-22T12:48:32;16.93;;;8.07;;
70320;SDS011;61127;55.826;37.046;2023-12-22T12:51:04;18.55;;;8.05;;
70320;SDS011;61127;55.826;37.046;2023-12-22T12:53:31;18.77;;;8.47;;
70320;SDS011;61127;55.826;37.046;2023-12-22T12:55:57;19.70;;;8.50;;
70320;SDS011;61127;55.826;37.046;2023-12-22T12:58:27;23.08;;;10.45;;
70320;SDS011;61127;55.826;37.046;2023-12-22T13:00:52;24.13;;;9.05;;
70320;SDS011;61127;55.826;37.046;2023-12-22T13:03:22;18.80;;;8.60;;
70320;SDS011;61127;55.826;37.046;2023-12-22T13:05:48;20.55;;;9.40;;
70320;SDS011;61127;55.826;37.046;2023-12-22T13:08:14;18.40;;;8.10;;
70320;SDS011;61127;55.826;37.046;2023-12-22T13:10:40;21.73;;;8.65;;
70320;SDS011;61127;55.826;37.046;2023-12-22T13:13:06;19.20;;;8.75;;
70320;SDS011;61127;55.826;37.046;2023-12-22T13:15:32;19.02;;;8.68;;
70320;SDS011;61127;55.826;37.046;2023-12-22T13:17:58;24.52;;;9.63;;
70320;SDS011;61127;55.826;37.046;2023-12-22T13:20:24;21.48;;;8.65;;
70320;SDS011;61127;55.826;37.046;2023-12-22T13:22:50;20.50;;;7.77;;
70320;SDS011;61127;55.826;37.046;2023-12-22T13:25:16;21.27;;;9.30;;
70320;SDS011;61127;55.826;37.046;2023-12-22T13:27:47;17.70;;;7.82;;
70320;SDS011;61127;55.826;37.046;2023-12-22T13:30:14;16.40;;;7.20;;
70320;SDS011;61127;55.826;37.046;2023-12-22T13:32:40;19.40;;;9.00;;
70320;SDS011;61127;55.826;37.046;2023-12-22T13:35:05;20.73;;;8.90;;
70320;SDS011;61127;55.826;37.046;2023-12-22T13:37:32;13.63;;;6.32;;
70320;SDS011;61127;55.826;37.046;2023-12-22T13:39:57;15.70;;;7.80;;
70320;SDS011;61127;55.826;37.046;2023-12-22T13:42:23;18.05;;;8.57;;
70320;SDS011;61127;55.826;37.046;2023-12-22T13:44:50;16.58;;;8.40;;
70320;SDS011;61127;55.826;37.046;2023-12-22T13:47:18;17.27;;;8.70;;
70320;SDS011;61127;55.826;37.046;2023-12-22T13:49:44;18.87;;;9.70;;
70320;SDS011;61127;55.826;37.046;2023-12-22T13:52:29;15.80;;;8.15;;
70320;SDS011;61127;55.826;37.046;2023-12-22T13:54:58;19.38;;;8.63;;
70320;SDS011;61127;55.826;37.046;2023-12-22T13:57:26;24.52;;;11.73;;
70320;SDS011;61127;55.826;37.046;2023-12-22T13:59:52;24.52;;;9.73;;
70320;SDS011;61127;55.826;37.046;2023-12-22T14:02:21;28.90;;;11.23;;
70320;SDS011;61127;55.826;37.046;2023-12-22T14:04:48;21.88;;;8.05;;
70320;SDS011;61127;55.826;37.046;2023-12-22T14:07:14;21.52;;;9.75;;
70320;SDS011;61127;55.826;37.046;2023-12-22T14:09:40;20.90;;;9.43;;
70320;SDS011;61127;55.826;37.046;2023-12-22T14:12:06;23.35;;;9.32;;
70320;SDS011;61127;55.826;37.046;2023-12-22T14:14:31;22.43;;;9.13;;
70320;SDS011;61127;55.826;37.046;2023-12-22T14:16:57;22.05;;;8.65;;
70320;SDS011;61127;55.826;37.046;2023-12-22T14:19:23;23.57;;;9.77;;
70320;SDS011;61127;55.826;37.046;2023-12-22T14:21:49;23.73;;;9.18;;
70320;SDS011;61127;55.826;37.046;2023-12-22T14:24:14;19.23;;;8.17;;
70320;SDS011;61127;55.826;37.046;2023-12-22T14:26:53;22.60;;;8.70;;
70320;SDS011;61127;55.826;37.046;2023-12-22T14:29:19;26.38;;;10.63;;
70320;SDS011;61127;55.826;37.046;2023-12-22T14:31:45;23.73;;;8.83;;
70320;SDS011;61127;55.826;37.046;2023-12-22T14:34:14;21.60;;;8.57;;